Nearby METAR Reports

 

KSJC - San Jose, California, USA
Distance from station: NE 14km
Actualización: 17/08/2018 11:53
Despejado
Despejado
 Viento del varies
Viento: varies 9 km/h
Temperatura: 24°C
Rocío: 14°C
Humedad: 54%
Barómetro: 1017.9 hPa
Clouds: Despejado
Visibility: 13 km
2018/08/17 18:53 KSJC 171853Z VRB05KT 8SM CLR 24/14 A3006 RMK AO2 SLP177 T02440144 $
KNUQ - Moffett Nas/Mtn, California, USA
Distance from station: N 14km
Actualización: 17/08/2018 11:56
Despejado
Despejado
 Viento del N
Viento: N 13 km/h
Temperatura: 22°C
Rocío: 14°C
Humedad: 61%
Barómetro: 1018.3 hPa
Clouds: Despejado
Visibility: 14 km
2018/08/17 18:56 KNUQ 171856Z 36007KT 9SM CLR 22/14 A3007 RMK AO2 SLP184 T02170144 $
 
KPAO - Palo Alto, California, USA
Distance from station: NNO 23km
Actualización: 17/08/2018 11:47
Despejado
Despejado
 Viento del NNE
Viento: NNE 15 km/h
Temperatura: 21°C
Rocío: 16°C
Humedad: 73%
Barómetro: 1018.6 hPa
Clouds: Despejado
Visibility: 13 km
2018/08/17 18:47 KPAO 171847Z 02008KT 8SM SKC 21/16 A3008
KRHV - San Jose/Reid, California, USA
Distance from station: ENE 19km
Actualización: 17/08/2018 11:47
Despejado
Despejado
 Viento del varies
Viento: varies 9 km/h
Temperatura: 25°C
Rocío: 15°C
Humedad: 54%
Barómetro: 1017.3 hPa
Clouds: Despejado
Visibility: 16 km
2018/08/17 18:47 KRHV 171847Z VRB05KT 10SM SKC 25/15 A3004
 
KOAK - Oakland, California, USA
Distance from station: NNO 50km
Actualización: 17/08/2018 11:53
Few Clouds
Few Clouds
 Viento del O
Viento: O 13 km/h
Temperatura: 19°C
Rocío: 13°C
Humedad: 68%
Barómetro: 1018.3 hPa
Clouds: Few Clouds
Visibility: 16 km
Cloud details: Few Clouds 183 m
2018/08/17 18:53 KOAK 171853Z 27007KT 10SM FEW006 19/13 A3007 RMK AO2 SLP182 T01890133
KSQL - San Carlos Airpo, California, USA
Distance from station: NO 34km
Actualización: 17/08/2018 07:00
NOT Current
Parcialmente nuboso
Parcialmente nuboso
 Viento del SSO
Viento: SSO 7 km/h
Temperatura: 15°C
Rocío: 13°C
Humedad: 88%
Barómetro: 1018.3 hPa
Clouds: Parcialmente nuboso
Visibility: 13 km
Cloud details: Parcialmente nuboso 335 m
2018/08/17 14:00 KSQL 171400Z AUTO 20004KT 8SM SCT011 15/13 A3007 RMK AO2
 
KSFO - San Francisco, California, USA
Distance from station: NO 49km
Actualización: 17/08/2018 11:56
Few Clouds
Few Clouds
 Viento del NNE
Viento: NNE 13 km/h
Temperatura: 18°C
Rocío: 13°C
Humedad: 73%
Barómetro: 1018.3 hPa
Clouds: Few Clouds
Visibility: 14 km
Cloud details: Few Clouds 183 m
2018/08/17 18:56 KSFO 171856Z 03007KT 9SM FEW006 18/13 A3007 RMK AO2 SLP181 T01830133 $
KE16 - San Martin, California, USA
Distance from station: ESE 43km
Actualización: 17/08/2018 12:10
Despejado
Despejado
 Viento del calm
Viento: Calma
Temperatura: 29°C
Rocío: 12°C
Humedad: 35%
Barómetro: 1017.6 hPa
Clouds: Despejado
Visibility: 14 km
2018/08/17 19:10 KE16 171910Z AUTO 00000KT 9SM CLR 29/12 A3005 RMK AO2
 
KWVI - Watsonville, California, USA
Distance from station: SSE 44km
Actualización: 17/08/2018 11:53
Despejado
Despejado
 Viento del SSO
Viento: SSO 15 km/h
Temperatura: 24°C
Rocío: 14°C
Humedad: 54%
Barómetro: 1018.3 hPa
Clouds: Despejado
Visibility: 16 km
2018/08/17 18:53 KWVI 171853Z AUTO 20008KT 10SM CLR 24/14 A3007 RMK AO2 SLP182 T02390139 $
KHAF - Half Moon Bay, California, USA
Distance from station: ONO 50km
Actualización: 17/08/2018 12:20
Despejado
Despejado
 Viento del ONO
Viento: ONO 15 km/h
Temperatura: 16°C
Rocío: 13°C
Humedad: 83%
Barómetro: 1019.3 hPa
Clouds: Despejado
Visibility: 11 km
2018/08/17 19:20 KHAF 171920Z AUTO 30008KT 7SM CLR 16/13 A3010 RMK AO2
 
KHWD - Hayward, California, USA
Distance from station: N 44km
Actualización: 17/08/2018 11:54
Haze, Despejado
Haze, Despejado
 Viento del O
Viento: O 13 km/h
Temperatura: 22°C
Rocío: 14°C
Humedad: 61%
Barómetro: 1018.3 hPa
Resumen: Haze
Clouds: Despejado
Visibility: 10 km
2018/08/17 18:54 KHWD 171854Z 28007KT 6SM HZ CLR 22/14 A3007 RMK AO2 SLP190 T02170139
KLVK - Livermore, California, USA
Distance from station: NNE 51km
Actualización: 17/08/2018 11:53
Smoke, Despejado
Smoke, Despejado
 Viento del varies
Viento: varies 9 km/h
Temperatura: 28°C
Heat Index: 27°C
Rocío: 13°C
Humedad: 40%
Barómetro: 1017.3 hPa
Resumen: Smoke
Clouds: Despejado
Visibility: 14 km
2018/08/17 18:53 KLVK 171853Z VRB05KT 9SM FU CLR 28/13 A3004 RMK AO2 SLP169 T02780133